sensor_id;sensor_type;location;lat;lon;timestamp;P1;durP1;ratioP1;P2;durP2;ratioP2
34134;SDS011;20410;55.578;12.968;2023-04-01T00:02:17;4.37;;;3.50;;
34134;SDS011;20410;55.578;12.968;2023-04-01T00:04:43;4.70;;;3.00;;
34134;SDS011;20410;55.578;12.968;2023-04-01T00:07:09;4.50;;;3.40;;
34134;SDS011;20410;55.578;12.968;2023-04-01T00:09:34;4.40;;;3.50;;
34134;SDS011;20410;55.578;12.968;2023-04-01T00:12:00;4.77;;;3.40;;
34134;SDS011;20410;55.578;12.968;2023-04-01T00:14:26;4.00;;;3.60;;
34134;SDS011;20410;55.578;12.968;2023-04-01T00:16:51;5.13;;;3.77;;
34134;SDS011;20410;55.578;12.968;2023-04-01T00:19:17;4.00;;;3.60;;
34134;SDS011;20410;55.578;12.968;2023-04-01T00:21:43;4.60;;;3.90;;
34134;SDS011;20410;55.578;12.968;2023-04-01T00:24:09;5.40;;;3.90;;
34134;SDS011;20410;55.578;12.968;2023-04-01T00:26:34;4.37;;;3.90;;
34134;SDS011;20410;55.578;12.968;2023-04-01T00:29:00;3.97;;;3.60;;
34134;SDS011;20410;55.578;12.968;2023-04-01T00:31:26;3.93;;;3.63;;
34134;SDS011;20410;55.578;12.968;2023-04-01T00:33:51;3.87;;;3.53;;
34134;SDS011;20410;55.578;12.968;2023-04-01T00:36:18;4.40;;;3.80;;
34134;SDS011;20410;55.578;12.968;2023-04-01T00:38:46;5.23;;;4.73;;
34134;SDS011;20410;55.578;12.968;2023-04-01T00:41:12;4.10;;;3.80;;
34134;SDS011;20410;55.578;12.968;2023-04-01T00:43:43;4.33;;;3.43;;
34134;SDS011;20410;55.578;12.968;2023-04-01T00:46:11;5.37;;;4.37;;
34134;SDS011;20410;55.578;12.968;2023-04-01T00:48:38;4.50;;;4.10;;
34134;SDS011;20410;55.578;12.968;2023-04-01T00:51:16;4.97;;;3.90;;
34134;SDS011;20410;55.578;12.968;2023-04-01T00:53:46;4.80;;;4.40;;
34134;SDS011;20410;55.578;12.968;2023-04-01T00:56:24;5.77;;;4.53;;
34134;SDS011;20410;55.578;12.968;2023-04-01T00:59:13;5.00;;;3.77;;
34134;SDS011;20410;55.578;12.968;2023-04-01T01:01:43;4.53;;;3.97;;
34134;SDS011;20410;55.578;12.968;2023-04-01T01:04:22;5.27;;;4.53;;
34134;SDS011;20410;55.578;12.968;2023-04-01T01:11:54;6.23;;;4.30;;
34134;SDS011;20410;55.578;12.968;2023-04-01T01:14:35;4.90;;;4.33;;
34134;SDS011;20410;55.578;12.968;2023-04-01T01:17:15;5.63;;;5.13;;
34134;SDS011;20410;55.578;12.968;2023-04-01T01:36:22;6.03;;;5.13;;
34134;SDS011;20410;55.578;12.968;2023-04-01T01:38:53;5.33;;;4.63;;
34134;SDS011;20410;55.578;12.968;2023-04-01T01:41:20;4.80;;;4.40;;
34134;SDS011;20410;55.578;12.968;2023-04-01T01:43:51;8.17;;;5.13;;
34134;SDS011;20410;55.578;12.968;2023-04-01T01:46:21;5.90;;;4.73;;
34134;SDS011;20410;55.578;12.968;2023-04-01T01:48:49;5.83;;;5.20;;
34134;SDS011;20410;55.578;12.968;2023-04-01T01:51:16;5.50;;;4.70;;
34134;SDS011;20410;55.578;12.968;2023-04-01T01:53:43;7.50;;;5.40;;
34134;SDS011;20410;55.578;12.968;2023-04-01T01:56:10;6.47;;;5.87;;
34134;SDS011;20410;55.578;12.968;2023-04-01T01:58:51;7.30;;;4.53;;
34134;SDS011;20410;55.578;12.968;2023-04-01T02:01:26;4.00;;;3.60;;
34134;SDS011;20410;55.578;12.968;2023-04-01T02:03:54;6.23;;;5.60;;
34134;SDS011;20410;55.578;12.968;2023-04-01T02:06:22;6.20;;;4.60;;
34134;SDS011;20410;55.578;12.968;2023-04-01T02:08:51;5.83;;;4.93;;
34134;SDS011;20410;55.578;12.968;2023-04-01T02:11:57;6.27;;;5.57;;
34134;SDS011;20410;55.578;12.968;2023-04-01T02:14:26;6.73;;;5.80;;
34134;SDS011;20410;55.578;12.968;2023-04-01T02:17:04;5.60;;;5.00;;
34134;SDS011;20410;55.578;12.968;2023-04-01T02:19:35;6.90;;;6.23;;
34134;SDS011;20410;55.578;12.968;2023-04-01T02:22:09;7.40;;;5.83;;
34134;SDS011;20410;55.578;12.968;2023-04-01T02:24:37;6.03;;;5.43;;
34134;SDS011;20410;55.578;12.968;2023-04-01T02:27:05;8.03;;;5.53;;
34134;SDS011;20410;55.578;12.968;2023-04-01T02:29:31;5.97;;;5.37;;
34134;SDS011;20410;55.578;12.968;2023-04-01T02:31:57;7.73;;;4.73;;
34134;SDS011;20410;55.578;12.968;2023-04-01T02:34:23;7.17;;;4.90;;
34134;SDS011;20410;55.578;12.968;2023-04-01T02:36:50;6.23;;;5.63;;
34134;SDS011;20410;55.578;12.968;2023-04-01T02:39:17;5.77;;;5.10;;
34134;SDS011;20410;55.578;12.968;2023-04-01T02:41:43;6.20;;;5.60;;
34134;SDS011;20410;55.578;12.968;2023-04-01T02:44:10;6.57;;;4.67;;
34134;SDS011;20410;55.578;12.968;2023-04-01T02:46:37;5.77;;;4.87;;
34134;SDS011;20410;55.578;12.968;2023-04-01T02:49:03;6.77;;;5.40;;
34134;SDS011;20410;55.578;12.968;2023-04-01T02:51:29;7.30;;;5.60;;
34134;SDS011;20410;55.578;12.968;2023-04-01T02:53:55;7.73;;;5.40;;
34134;SDS011;20410;55.578;12.968;2023-04-01T02:56:20;5.97;;;5.10;;
34134;SDS011;20410;55.578;12.968;2023-04-01T02:58:46;6.83;;;5.60;;
34134;SDS011;20410;55.578;12.968;2023-04-01T03:01:12;6.80;;;5.77;;
34134;SDS011;20410;55.578;12.968;2023-04-01T03:03:39;7.07;;;6.33;;
34134;SDS011;20410;55.578;12.968;2023-04-01T03:06:05;7.37;;;6.07;;
34134;SDS011;20410;55.578;12.968;2023-04-01T03:08:32;7.47;;;5.53;;
34134;SDS011;20410;55.578;12.968;2023-04-01T03:10:57;8.00;;;6.03;;
34134;SDS011;20410;55.578;12.968;2023-04-01T03:13:23;7.47;;;6.23;;
34134;SDS011;20410;55.578;12.968;2023-04-01T03:15:48;8.67;;;6.40;;
34134;SDS011;20410;55.578;12.968;2023-04-01T03:18:14;8.27;;;6.50;;
34134;SDS011;20410;55.578;12.968;2023-04-01T03:20:40;7.63;;;6.10;;
34134;SDS011;20410;55.578;12.968;2023-04-01T03:23:06;7.37;;;5.63;;
34134;SDS011;20410;55.578;12.968;2023-04-01T03:25:32;6.93;;;5.70;;
34134;SDS011;20410;55.578;12.968;2023-04-01T03:27:58;6.83;;;5.23;;
34134;SDS011;20410;55.578;12.968;2023-04-01T03:30:24;7.37;;;6.17;;
34134;SDS011;20410;55.578;12.968;2023-04-01T03:32:51;5.63;;;5.03;;
34134;SDS011;20410;55.578;12.968;2023-04-01T03:35:17;7.23;;;5.60;;
34134;SDS011;20410;55.578;12.968;2023-04-01T03:37:43;7.10;;;6.40;;
34134;SDS011;20410;55.578;12.968;2023-04-01T03:40:08;6.77;;;6.10;;
34134;SDS011;20410;55.578;12.968;2023-04-01T03:42:34;7.13;;;5.53;;
34134;SDS011;20410;55.578;12.968;2023-04-01T03:45:01;6.97;;;6.30;;
34134;SDS011;20410;55.578;12.968;2023-04-01T03:47:27;8.83;;;5.90;;
34134;SDS011;20410;55.578;12.968;2023-04-01T03:49:53;8.10;;;6.00;;
34134;SDS011;20410;55.578;12.968;2023-04-01T03:52:19;8.40;;;6.33;;
34134;SDS011;20410;55.578;12.968;2023-04-01T03:54:45;8.90;;;6.27;;
34134;SDS011;20410;55.578;12.968;2023-04-01T03:57:10;8.20;;;6.27;;
34134;SDS011;20410;55.578;12.968;2023-04-01T03:59:36;8.63;;;6.40;;
34134;SDS011;20410;55.578;12.968;2023-04-01T04:02:01;8.83;;;6.10;;
34134;SDS011;20410;55.578;12.968;2023-04-01T04:04:27;9.77;;;6.30;;
34134;SDS011;20410;55.578;12.968;2023-04-01T04:06:53;7.60;;;5.57;;
34134;SDS011;20410;55.578;12.968;2023-04-01T04:09:19;7.90;;;6.20;;
34134;SDS011;20410;55.578;12.968;2023-04-01T04:11:45;8.07;;;6.13;;
34134;SDS011;20410;55.578;12.968;2023-04-01T04:14:11;7.63;;;6.30;;
34134;SDS011;20410;55.578;12.968;2023-04-01T04:16:36;9.13;;;6.40;;
34134;SDS011;20410;55.578;12.968;2023-04-01T04:19:02;9.87;;;6.17;;
34134;SDS011;20410;55.578;12.968;2023-04-01T04:21:28;10.77;;;5.97;;
34134;SDS011;20410;55.578;12.968;2023-04-01T04:23:54;6.77;;;5.90;;
34134;SDS011;20410;55.578;12.968;2023-04-01T04:26:20;7.53;;;6.00;;
34134;SDS011;20410;55.578;12.968;2023-04-01T04:28:46;9.67;;;6.50;;
34134;SDS011;20410;55.578;12.968;2023-04-01T04:31:11;10.30;;;6.10;;
34134;SDS011;20410;55.578;12.968;2023-04-01T04:33:37;8.73;;;6.97;;
34134;SDS011;20410;55.578;12.968;2023-04-01T04:36:03;6.90;;;5.70;;
34134;SDS011;20410;55.578;12.968;2023-04-01T04:38:29;7.97;;;6.80;;
34134;SDS011;20410;55.578;12.968;2023-04-01T04:40:55;10.17;;;6.70;;
34134;SDS011;20410;55.578;12.968;2023-04-01T04:43:22;10.40;;;7.10;;
34134;SDS011;20410;55.578;12.968;2023-04-01T04:45:47;9.50;;;6.43;;
34134;SDS011;20410;55.578;12.968;2023-04-01T04:48:14;7.63;;;6.17;;
34134;SDS011;20410;55.578;12.968;2023-04-01T04:50:43;8.57;;;6.33;;
34134;SDS011;20410;55.578;12.968;2023-04-01T04:53:11;8.23;;;5.87;;
34134;SDS011;20410;55.578;12.968;2023-04-01T04:55:37;9.13;;;6.00;;
34134;SDS011;20410;55.578;12.968;2023-04-01T04:58:07;8.90;;;6.37;;
34134;SDS011;20410;55.578;12.968;2023-04-01T05:00:32;6.80;;;5.93;;
34134;SDS011;20410;55.578;12.968;2023-04-01T05:02:58;7.73;;;6.27;;
34134;SDS011;20410;55.578;12.968;2023-04-01T05:05:23;7.47;;;5.90;;
34134;SDS011;20410;55.578;12.968;2023-04-01T05:07:49;8.17;;;6.70;;
34134;SDS011;20410;55.578;12.968;2023-04-01T05:10:15;9.50;;;5.80;;
34134;SDS011;20410;55.578;12.968;2023-04-01T05:12:40;6.77;;;6.07;;
34134;SDS011;20410;55.578;12.968;2023-04-01T05:15:06;6.90;;;5.57;;
34134;SDS011;20410;55.578;12.968;2023-04-01T05:17:32;7.27;;;4.87;;
34134;SDS011;20410;55.578;12.968;2023-04-01T05:19:58;6.57;;;5.00;;
34134;SDS011;20410;55.578;12.968;2023-04-01T05:22:24;7.50;;;5.50;;
34134;SDS011;20410;55.578;12.968;2023-04-01T05:24:50;8.63;;;5.23;;
34134;SDS011;20410;55.578;12.968;2023-04-01T05:27:16;6.10;;;5.20;;
34134;SDS011;20410;55.578;12.968;2023-04-01T05:29:41;6.00;;;5.20;;
34134;SDS011;20410;55.578;12.968;2023-04-01T05:32:07;7.10;;;5.63;;
34134;SDS011;20410;55.578;12.968;2023-04-01T05:34:32;6.97;;;5.97;;
34134;SDS011;20410;55.578;12.968;2023-04-01T05:36:58;6.30;;;5.37;;
34134;SDS011;20410;55.578;12.968;2023-04-01T05:39:24;5.93;;;5.27;;
34134;SDS011;20410;55.578;12.968;2023-04-01T05:41:49;6.17;;;4.70;;
34134;SDS011;20410;55.578;12.968;2023-04-01T05:44:15;7.10;;;4.90;;
34134;SDS011;20410;55.578;12.968;2023-04-01T05:46:41;7.07;;;5.27;;
34134;SDS011;20410;55.578;12.968;2023-04-01T05:49:07;4.90;;;4.40;;
34134;SDS011;20410;55.578;12.968;2023-04-01T05:51:32;6.03;;;4.73;;
34134;SDS011;20410;55.578;12.968;2023-04-01T05:53:58;4.97;;;4.47;;
34134;SDS011;20410;55.578;12.968;2023-04-01T05:56:24;6.00;;;4.70;;
34134;SDS011;20410;55.578;12.968;2023-04-01T05:58:53;6.23;;;5.10;;
34134;SDS011;20410;55.578;12.968;2023-04-01T06:01:19;5.30;;;4.80;;
34134;SDS011;20410;55.578;12.968;2023-04-01T06:03:45;5.60;;;4.57;;
34134;SDS011;20410;55.578;12.968;2023-04-01T06:06:13;5.97;;;5.13;;
34134;SDS011;20410;55.578;12.968;2023-04-01T06:08:40;5.10;;;3.93;;
34134;SDS011;20410;55.578;12.968;2023-04-01T06:14:07;4.40;;;3.83;;
34134;SDS011;20410;55.578;12.968;2023-04-01T06:22:32;4.43;;;4.03;;
34134;SDS011;20410;55.578;12.968;2023-04-01T06:25:17;5.87;;;3.83;;
34134;SDS011;20410;55.578;12.968;2023-04-01T06:36:48;4.63;;;4.10;;
34134;SDS011;20410;55.578;12.968;2023-04-01T06:53:08;5.93;;;3.47;;
34134;SDS011;20410;55.578;12.968;2023-04-01T06:55:50;3.73;;;2.73;;
34134;SDS011;20410;55.578;12.968;2023-04-01T06:58:38;4.83;;;2.90;;
34134;SDS011;20410;55.578;12.968;2023-04-01T07:01:08;5.33;;;3.93;;
34134;SDS011;20410;55.578;12.968;2023-04-01T07:03:40;4.10;;;2.97;;
34134;SDS011;20410;55.578;12.968;2023-04-01T07:06:16;3.70;;;2.90;;
34134;SDS011;20410;55.578;12.968;2023-04-01T07:09:06;4.03;;;3.30;;
34134;SDS011;20410;55.578;12.968;2023-04-01T07:11:37;3.43;;;3.10;;
34134;SDS011;20410;55.578;12.968;2023-04-01T07:14:11;4.97;;;3.13;;
34134;SDS011;20410;55.578;12.968;2023-04-01T07:16:49;3.37;;;2.70;;
34134;SDS011;20410;55.578;12.968;2023-04-01T07:24:41;3.83;;;2.90;;
34134;SDS011;20410;55.578;12.968;2023-04-01T07:27:10;3.23;;;3.00;;
34134;SDS011;20410;55.578;12.968;2023-04-01T07:29:37;4.33;;;3.10;;
34134;SDS011;20410;55.578;12.968;2023-04-01T07:40:22;5.03;;;3.20;;
34134;SDS011;20410;55.578;12.968;2023-04-01T07:45:43;6.70;;;3.07;;
34134;SDS011;20410;55.578;12.968;2023-04-01T07:56:05;3.53;;;3.03;;
34134;SDS011;20410;55.578;12.968;2023-04-01T07:58:49;4.80;;;3.03;;
34134;SDS011;20410;55.578;12.968;2023-04-01T08:09:58;3.57;;;2.73;;
34134;SDS011;20410;55.578;12.968;2023-04-01T08:15:48;4.23;;;3.17;;
34134;SDS011;20410;55.578;12.968;2023-04-01T08:18:37;2.83;;;2.50;;
34134;SDS011;20410;55.578;12.968;2023-04-01T08:21:35;2.77;;;2.40;;
34134;SDS011;20410;55.578;12.968;2023-04-01T08:24:11;4.00;;;2.77;;
34134;SDS011;20410;55.578;12.968;2023-04-01T08:26:46;4.43;;;2.73;;
34134;SDS011;20410;55.578;12.968;2023-04-01T08:29:26;5.17;;;2.40;;
34134;SDS011;20410;55.578;12.968;2023-04-01T08:34:34;4.03;;;2.70;;
34134;SDS011;20410;55.578;12.968;2023-04-01T08:39:51;3.67;;;2.73;;
34134;SDS011;20410;55.578;12.968;2023-04-01T08:45:15;3.93;;;2.40;;
34134;SDS011;20410;55.578;12.968;2023-04-01T08:50:50;3.83;;;2.67;;
34134;SDS011;20410;55.578;12.968;2023-04-01T09:10:42;3.60;;;2.40;;
34134;SDS011;20410;55.578;12.968;2023-04-01T09:18:38;3.30;;;2.20;;
34134;SDS011;20410;55.578;12.968;2023-04-01T09:21:37;3.07;;;2.27;;
34134;SDS011;20410;55.578;12.968;2023-04-01T09:24:36;3.20;;;2.80;;
34134;SDS011;20410;55.578;12.968;2023-04-01T09:35:49;3.03;;;2.50;;
34134;SDS011;20410;55.578;12.968;2023-04-01T10:00:20;2.77;;;2.30;;
34134;SDS011;20410;55.578;12.968;2023-04-01T10:12:00;2.40;;;1.83;;
34134;SDS011;20410;55.578;12.968;2023-04-01T10:20:24;3.47;;;2.30;;
34134;SDS011;20410;55.578;12.968;2023-04-01T10:29:26;3.63;;;2.40;;
34134;SDS011;20410;55.578;12.968;2023-04-01T11:11:53;2.80;;;2.00;;
34134;SDS011;20410;55.578;12.968;2023-04-01T11:15:03;2.83;;;2.57;;
34134;SDS011;20410;55.578;12.968;2023-04-01T11:26:06;3.60;;;1.97;;
34134;SDS011;20410;55.578;12.968;2023-04-01T11:31:39;2.50;;;1.90;;
34134;SDS011;20410;55.578;12.968;2023-04-01T11:45:46;3.20;;;2.10;;
34134;SDS011;20410;55.578;12.968;2023-04-01T11:48:35;1.80;;;1.40;;
34134;SDS011;20410;55.578;12.968;2023-04-01T11:51:10;3.37;;;1.80;;
34134;SDS011;20410;55.578;12.968;2023-04-01T11:56:14;2.20;;;2.00;;
34134;SDS011;20410;55.578;12.968;2023-04-01T12:01:56;2.20;;;2.00;;
34134;SDS011;20410;55.578;12.968;2023-04-01T12:04:46;2.37;;;1.70;;
34134;SDS011;20410;55.578;12.968;2023-04-01T12:07:45;2.37;;;1.80;;
34134;SDS011;20410;55.578;12.968;2023-04-01T12:10:18;3.13;;;1.97;;
34134;SDS011;20410;55.578;12.968;2023-04-01T12:15:35;1.60;;;1.50;;
34134;SDS011;20410;55.578;12.968;2023-04-01T12:18:26;2.23;;;1.83;;
34134;SDS011;20410;55.578;12.968;2023-04-01T12:37:50;1.60;;;1.50;;
34134;SDS011;20410;55.578;12.968;2023-04-01T13:13:00;2.07;;;1.87;;
34134;SDS011;20410;55.578;12.968;2023-04-01T13:15:47;2.17;;;1.43;;
34134;SDS011;20410;55.578;12.968;2023-04-01T13:29:18;1.47;;;1.30;;
34134;SDS011;20410;55.578;12.968;2023-04-01T13:40:33;2.73;;;1.53;;
34134;SDS011;20410;55.578;12.968;2023-04-01T13:43:24;3.23;;;1.60;;
34134;SDS011;20410;55.578;12.968;2023-04-01T13:51:19;3.30;;;1.90;;
34134;SDS011;20410;55.578;12.968;2023-04-01T14:13:18;1.77;;;1.63;;
34134;SDS011;20410;55.578;12.968;2023-04-01T14:19:20;2.40;;;1.47;;
34134;SDS011;20410;55.578;12.968;2023-04-01T14:32:11;3.47;;;1.60;;
34134;SDS011;20410;55.578;12.968;2023-04-01T14:37:57;2.53;;;1.80;;
34134;SDS011;20410;55.578;12.968;2023-04-01T14:49:24;2.90;;;1.50;;
34134;SDS011;20410;55.578;12.968;2023-04-01T14:51:55;1.73;;;1.50;;
34134;SDS011;20410;55.578;12.968;2023-04-01T14:54:46;3.27;;;1.67;;
34134;SDS011;20410;55.578;12.968;2023-04-01T14:57:28;2.30;;;2.10;;
34134;SDS011;20410;55.578;12.968;2023-04-01T15:02:45;2.57;;;1.80;;
34134;SDS011;20410;55.578;12.968;2023-04-01T15:08:07;2.37;;;1.73;;
34134;SDS011;20410;55.578;12.968;2023-04-01T15:19:17;3.43;;;1.70;;
34134;SDS011;20410;55.578;12.968;2023-04-01T15:21:33;1.90;;;1.53;;
34134;SDS011;20410;55.578;12.968;2023-04-01T15:24:20;3.27;;;1.83;;
34134;SDS011;20410;55.578;12.968;2023-04-01T15:32:25;3.03;;;1.90;;
34134;SDS011;20410;55.578;12.968;2023-04-01T15:40:41;2.80;;;2.10;;
34134;SDS011;20410;55.578;12.968;2023-04-01T15:43:15;4.17;;;2.37;;
34134;SDS011;20410;55.578;12.968;2023-04-01T15:52:03;2.17;;;1.77;;
34134;SDS011;20410;55.578;12.968;2023-04-01T15:58:02;6.13;;;1.83;;
34134;SDS011;20410;55.578;12.968;2023-04-01T16:00:49;3.20;;;1.77;;
34134;SDS011;20410;55.578;12.968;2023-04-01T16:03:36;2.60;;;2.00;;
34134;SDS011;20410;55.578;12.968;2023-04-01T16:09:09;3.43;;;1.83;;
34134;SDS011;20410;55.578;12.968;2023-04-01T16:17:26;3.30;;;1.70;;
34134;SDS011;20410;55.578;12.968;2023-04-01T16:20:35;3.13;;;1.73;;
34134;SDS011;20410;55.578;12.968;2023-04-01T16:23:20;3.03;;;1.60;;
34134;SDS011;20410;55.578;12.968;2023-04-01T16:26:01;2.13;;;1.70;;
34134;SDS011;20410;55.578;12.968;2023-04-01T16:29:03;3.40;;;2.03;;
34134;SDS011;20410;55.578;12.968;2023-04-01T16:32:38;2.27;;;1.83;;
34134;SDS011;20410;55.578;12.968;2023-04-01T16:34:56;2.33;;;1.80;;
34134;SDS011;20410;55.578;12.968;2023-04-01T16:37:50;3.17;;;2.40;;
34134;SDS011;20410;55.578;12.968;2023-04-01T16:43:35;2.53;;;1.83;;
34134;SDS011;20410;55.578;12.968;2023-04-01T16:49:03;3.53;;;1.60;;
34134;SDS011;20410;55.578;12.968;2023-04-01T16:52:29;2.80;;;1.63;;
34134;SDS011;20410;55.578;12.968;2023-04-01T17:02:37;5.43;;;2.13;;
34134;SDS011;20410;55.578;12.968;2023-04-01T17:05:11;2.33;;;1.70;;
34134;SDS011;20410;55.578;12.968;2023-04-01T17:27:44;7.90;;;3.47;;
34134;SDS011;20410;55.578;12.968;2023-04-01T17:30:33;5.87;;;1.77;;
34134;SDS011;20410;55.578;12.968;2023-04-01T17:55:26;2.77;;;2.17;;
34134;SDS011;20410;55.578;12.968;2023-04-01T18:14:34;3.50;;;2.00;;
34134;SDS011;20410;55.578;12.968;2023-04-01T18:22:59;4.57;;;3.10;;
34134;SDS011;20410;55.578;12.968;2023-04-01T18:25:53;5.77;;;2.50;;
34134;SDS011;20410;55.578;12.968;2023-04-01T18:36:09;3.53;;;2.73;;
34134;SDS011;20410;55.578;12.968;2023-04-01T18:39:02;5.10;;;2.73;;
34134;SDS011;20410;55.578;12.968;2023-04-01T18:41:35;3.37;;;3.07;;
34134;SDS011;20410;55.578;12.968;2023-04-01T18:52:45;3.73;;;3.13;;
34134;SDS011;20410;55.578;12.968;2023-04-01T18:55:32;3.73;;;2.83;;
34134;SDS011;20410;55.578;12.968;2023-04-01T19:01:11;4.00;;;2.80;;
34134;SDS011;20410;55.578;12.968;2023-04-01T19:06:43;3.60;;;2.70;;
34134;SDS011;20410;55.578;12.968;2023-04-01T19:09:19;2.27;;;2.03;;
34134;SDS011;20410;55.578;12.968;2023-04-01T19:15:19;4.03;;;2.77;;
34134;SDS011;20410;55.578;12.968;2023-04-01T19:20:32;4.13;;;2.33;;
34134;SDS011;20410;55.578;12.968;2023-04-01T19:25:48;5.93;;;3.30;;
34134;SDS011;20410;55.578;12.968;2023-04-01T19:31:30;4.23;;;3.53;;
34134;SDS011;20410;55.578;12.968;2023-04-01T19:34:21;4.27;;;3.33;;
34134;SDS011;20410;55.578;12.968;2023-04-01T19:42:10;5.70;;;3.40;;
34134;SDS011;20410;55.578;12.968;2023-04-01T19:45:07;7.70;;;4.13;;
34134;SDS011;20410;55.578;12.968;2023-04-01T19:48:05;4.93;;;2.90;;
34134;SDS011;20410;55.578;12.968;2023-04-01T19:50:46;4.47;;;3.10;;
34134;SDS011;20410;55.578;12.968;2023-04-01T19:56:12;2.17;;;1.90;;
34134;SDS011;20410;55.578;12.968;2023-04-01T19:58:50;4.80;;;2.63;;
34134;SDS011;20410;55.578;12.968;2023-04-01T20:01:35;3.20;;;2.37;;
34134;SDS011;20410;55.578;12.968;2023-04-01T20:04:16;2.93;;;2.27;;
34134;SDS011;20410;55.578;12.968;2023-04-01T20:07:00;2.50;;;2.13;;
34134;SDS011;20410;55.578;12.968;2023-04-01T20:18:26;2.47;;;2.13;;
34134;SDS011;20410;55.578;12.968;2023-04-01T20:21:28;2.83;;;2.33;;
34134;SDS011;20410;55.578;12.968;2023-04-01T20:24:04;2.97;;;2.20;;
34134;SDS011;20410;55.578;12.968;2023-04-01T20:32:39;3.40;;;2.50;;
34134;SDS011;20410;55.578;12.968;2023-04-01T20:35:50;2.87;;;2.57;;
34134;SDS011;20410;55.578;12.968;2023-04-01T20:52:04;2.43;;;2.23;;
34134;SDS011;20410;55.578;12.968;2023-04-01T20:57:33;4.93;;;3.00;;
34134;SDS011;20410;55.578;12.968;2023-04-01T21:00:14;2.03;;;1.83;;
34134;SDS011;20410;55.578;12.968;2023-04-01T21:02:59;2.20;;;2.00;;
34134;SDS011;20410;55.578;12.968;2023-04-01T21:08:09;2.33;;;2.17;;
34134;SDS011;20410;55.578;12.968;2023-04-01T21:11:01;2.10;;;1.93;;
34134;SDS011;20410;55.578;12.968;2023-04-01T21:26:49;2.00;;;1.40;;
34134;SDS011;20410;55.578;12.968;2023-04-01T21:34:42;13.43;;;7.57;;
34134;SDS011;20410;55.578;12.968;2023-04-01T21:37:17;6.37;;;4.00;;
34134;SDS011;20410;55.578;12.968;2023-04-01T21:43:05;2.13;;;2.03;;
34134;SDS011;20410;55.578;12.968;2023-04-01T21:51:07;2.13;;;1.83;;
34134;SDS011;20410;55.578;12.968;2023-04-01T21:58:59;3.73;;;1.57;;
34134;SDS011;20410;55.578;12.968;2023-04-01T22:01:51;2.30;;;1.77;;
34134;SDS011;20410;55.578;12.968;2023-04-01T22:07:32;1.87;;;1.30;;
34134;SDS011;20410;55.578;12.968;2023-04-01T22:13:32;2.10;;;1.93;;
34134;SDS011;20410;55.578;12.968;2023-04-01T22:15:46;2.50;;;1.70;;
34134;SDS011;20410;55.578;12.968;2023-04-01T22:18:39;1.87;;;1.77;;
34134;SDS011;20410;55.578;12.968;2023-04-01T22:21:24;1.90;;;1.80;;
34134;SDS011;20410;55.578;12.968;2023-04-01T22:32:16;1.93;;;1.83;;
34134;SDS011;20410;55.578;12.968;2023-04-01T22:40:29;1.93;;;1.60;;
34134;SDS011;20410;55.578;12.968;2023-04-01T22:43:21;2.13;;;1.93;;
34134;SDS011;20410;55.578;12.968;2023-04-01T22:46:17;3.30;;;1.93;;
34134;SDS011;20410;55.578;12.968;2023-04-01T22:51:49;1.63;;;1.33;;
34134;SDS011;20410;55.578;12.968;2023-04-01T22:54:31;2.40;;;2.20;;
34134;SDS011;20410;55.578;12.968;2023-04-01T22:57:05;2.83;;;1.60;;
34134;SDS011;20410;55.578;12.968;2023-04-01T22:59:52;1.93;;;1.83;;
34134;SDS011;20410;55.578;12.968;2023-04-01T23:02:33;2.63;;;1.70;;
34134;SDS011;20410;55.578;12.968;2023-04-01T23:05:04;2.73;;;2.13;;
34134;SDS011;20410;55.578;12.968;2023-04-01T23:13:03;1.97;;;1.77;;
34134;SDS011;20410;55.578;12.968;2023-04-01T23:15:35;2.10;;;1.40;;
34134;SDS011;20410;55.578;12.968;2023-04-01T23:18:24;1.77;;;1.67;;
34134;SDS011;20410;55.578;12.968;2023-04-01T23:21:26;1.83;;;1.73;;
34134;SDS011;20410;55.578;12.968;2023-04-01T23:26:40;1.97;;;1.60;;
34134;SDS011;20410;55.578;12.968;2023-04-01T23:29:18;1.80;;;1.70;;
34134;SDS011;20410;55.578;12.968;2023-04-01T23:31:45;2.53;;;1.90;;
34134;SDS011;20410;55.578;12.968;2023-04-01T23:34:32;1.90;;;1.80;;
34134;SDS011;20410;55.578;12.968;2023-04-01T23:37:12;1.60;;;1.50;;
34134;SDS011;20410;55.578;12.968;2023-04-01T23:39:41;1.70;;;1.60;;
34134;SDS011;20410;55.578;12.968;2023-04-01T23:42:19;1.97;;;1.87;;
34134;SDS011;20410;55.578;12.968;2023-04-01T23:44:52;2.40;;;2.20;;
34134;SDS011;20410;55.578;12.968;2023-04-01T23:47:35;1.87;;;1.67;;
34134;SDS011;20410;55.578;12.968;2023-04-01T23:50:07;1.97;;;1.60;;
34134;SDS011;20410;55.578;12.968;2023-04-01T23:52:48;1.70;;;1.60;;
34134;SDS011;20410;55.578;12.968;2023-04-01T23:55:19;1.67;;;1.57;;
